sensor_id;sensor_type;location;lat;lon;timestamp;P1;durP1;ratioP1;P2;durP2;ratioP2
77287;SDS011;66345;42.694;23.346;2023-05-09T00:02:24;6.00;;;3.58;;
77287;SDS011;66345;42.694;23.346;2023-05-09T00:04:49;6.47;;;3.60;;
77287;SDS011;66345;42.694;23.346;2023-05-09T00:07:15;6.22;;;3.72;;
77287;SDS011;66345;42.694;23.346;2023-05-09T00:09:41;6.97;;;3.53;;
77287;SDS011;66345;42.694;23.346;2023-05-09T00:12:06;8.07;;;3.80;;
77287;SDS011;66345;42.694;23.346;2023-05-09T00:14:33;6.13;;;3.42;;
77287;SDS011;66345;42.694;23.346;2023-05-09T00:16:58;6.80;;;3.63;;
77287;SDS011;66345;42.694;23.346;2023-05-09T00:19:24;5.72;;;3.28;;
77287;SDS011;66345;42.694;23.346;2023-05-09T00:21:51;6.13;;;3.15;;
77287;SDS011;66345;42.694;23.346;2023-05-09T00:24:16;13.20;;;3.27;;
77287;SDS011;66345;42.694;23.346;2023-05-09T00:26:42;6.37;;;3.10;;
77287;SDS011;66345;42.694;23.346;2023-05-09T00:29:07;5.63;;;3.13;;
77287;SDS011;66345;42.694;23.346;2023-05-09T00:31:32;6.47;;;3.00;;
77287;SDS011;66345;42.694;23.346;2023-05-09T00:33:58;6.60;;;2.90;;
77287;SDS011;66345;42.694;23.346;2023-05-09T00:36:23;6.97;;;3.30;;
77287;SDS011;66345;42.694;23.346;2023-05-09T00:38:49;6.38;;;3.03;;
77287;SDS011;66345;42.694;23.346;2023-05-09T00:41:14;7.33;;;3.03;;
77287;SDS011;66345;42.694;23.346;2023-05-09T00:43:40;6.63;;;3.10;;
77287;SDS011;66345;42.694;23.346;2023-05-09T00:46:05;7.00;;;3.87;;
77287;SDS011;66345;42.694;23.346;2023-05-09T00:48:30;6.32;;;3.38;;
77287;SDS011;66345;42.694;23.346;2023-05-09T00:50:56;6.40;;;3.03;;
77287;SDS011;66345;42.694;23.346;2023-05-09T00:53:21;4.97;;;3.17;;
77287;SDS011;66345;42.694;23.346;2023-05-09T00:55:48;5.25;;;2.80;;
77287;SDS011;66345;42.694;23.346;2023-05-09T00:58:14;6.33;;;3.20;;
77287;SDS011;66345;42.694;23.346;2023-05-09T01:00:39;5.85;;;3.28;;
77287;SDS011;66345;42.694;23.346;2023-05-09T01:03:05;5.83;;;3.10;;
77287;SDS011;66345;42.694;23.346;2023-05-09T01:05:41;6.10;;;3.03;;
77287;SDS011;66345;42.694;23.346;2023-05-09T01:08:18;5.82;;;3.30;;
77287;SDS011;66345;42.694;23.346;2023-05-09T01:11:00;6.10;;;3.20;;
77287;SDS011;66345;42.694;23.346;2023-05-09T01:13:51;6.13;;;3.20;;
77287;SDS011;66345;42.694;23.346;2023-05-09T01:16:22;5.40;;;3.10;;
77287;SDS011;66345;42.694;23.346;2023-05-09T01:19:05;5.10;;;3.00;;
77287;SDS011;66345;42.694;23.346;2023-05-09T01:21:38;6.47;;;3.55;;
77287;SDS011;66345;42.694;23.346;2023-05-09T01:32:12;5.38;;;3.00;;
77287;SDS011;66345;42.694;23.346;2023-05-09T01:34:44;6.13;;;3.10;;
77287;SDS011;66345;42.694;23.346;2023-05-09T01:37:14;5.25;;;2.92;;
77287;SDS011;66345;42.694;23.346;2023-05-09T01:39:41;8.13;;;3.53;;
77287;SDS011;66345;42.694;23.346;2023-05-09T01:42:11;5.90;;;3.28;;
77287;SDS011;66345;42.694;23.346;2023-05-09T01:44:38;6.68;;;3.50;;
77287;SDS011;66345;42.694;23.346;2023-05-09T01:47:06;6.45;;;3.25;;
77287;SDS011;66345;42.694;23.346;2023-05-09T01:49:34;9.13;;;3.72;;
77287;SDS011;66345;42.694;23.346;2023-05-09T01:52:03;6.15;;;3.28;;
77287;SDS011;66345;42.694;23.346;2023-05-09T01:54:33;7.70;;;3.40;;
77287;SDS011;66345;42.694;23.346;2023-05-09T01:57:01;6.65;;;3.25;;
77287;SDS011;66345;42.694;23.346;2023-05-09T01:59:27;7.13;;;3.50;;
77287;SDS011;66345;42.694;23.346;2023-05-09T02:01:55;6.10;;;3.65;;
77287;SDS011;66345;42.694;23.346;2023-05-09T02:04:22;6.72;;;3.40;;
77287;SDS011;66345;42.694;23.346;2023-05-09T02:06:48;6.43;;;3.40;;
77287;SDS011;66345;42.694;23.346;2023-05-09T02:09:16;7.18;;;3.42;;
77287;SDS011;66345;42.694;23.346;2023-05-09T02:11:42;6.60;;;3.40;;
77287;SDS011;66345;42.694;23.346;2023-05-09T02:14:08;6.53;;;3.40;;
77287;SDS011;66345;42.694;23.346;2023-05-09T02:16:33;6.50;;;3.20;;
77287;SDS011;66345;42.694;23.346;2023-05-09T02:18:59;8.25;;;3.25;;
77287;SDS011;66345;42.694;23.346;2023-05-09T02:21:24;6.87;;;3.33;;
77287;SDS011;66345;42.694;23.346;2023-05-09T02:23:50;8.97;;;3.40;;
77287;SDS011;66345;42.694;23.346;2023-05-09T02:26:16;6.07;;;3.50;;
77287;SDS011;66345;42.694;23.346;2023-05-09T02:28:42;7.30;;;3.30;;
77287;SDS011;66345;42.694;23.346;2023-05-09T02:31:09;6.40;;;3.30;;
77287;SDS011;66345;42.694;23.346;2023-05-09T02:33:38;6.78;;;3.28;;
77287;SDS011;66345;42.694;23.346;2023-05-09T02:36:05;5.28;;;3.03;;
77287;SDS011;66345;42.694;23.346;2023-05-09T02:38:32;7.25;;;3.65;;
77287;SDS011;66345;42.694;23.346;2023-05-09T02:40:59;6.27;;;3.17;;
77287;SDS011;66345;42.694;23.346;2023-05-09T02:43:25;8.02;;;3.22;;
77287;SDS011;66345;42.694;23.346;2023-05-09T02:45:51;8.07;;;3.80;;
77287;SDS011;66345;42.694;23.346;2023-05-09T02:48:16;7.35;;;3.42;;
77287;SDS011;66345;42.694;23.346;2023-05-09T02:50:42;6.70;;;3.57;;
77287;SDS011;66345;42.694;23.346;2023-05-09T02:53:08;7.10;;;3.35;;
77287;SDS011;66345;42.694;23.346;2023-05-09T02:55:33;7.33;;;3.77;;
77287;SDS011;66345;42.694;23.346;2023-05-09T02:57:59;10.40;;;3.70;;
77287;SDS011;66345;42.694;23.346;2023-05-09T03:00:25;7.80;;;3.67;;
77287;SDS011;66345;42.694;23.346;2023-05-09T03:02:50;9.40;;;4.00;;
77287;SDS011;66345;42.694;23.346;2023-05-09T03:05:16;7.65;;;3.85;;
77287;SDS011;66345;42.694;23.346;2023-05-09T03:07:42;8.00;;;4.07;;
77287;SDS011;66345;42.694;23.346;2023-05-09T03:10:08;9.98;;;3.92;;
77287;SDS011;66345;42.694;23.346;2023-05-09T03:12:37;10.35;;;4.25;;
77287;SDS011;66345;42.694;23.346;2023-05-09T03:15:06;10.88;;;4.50;;
77287;SDS011;66345;42.694;23.346;2023-05-09T03:17:32;9.77;;;4.90;;
77287;SDS011;66345;42.694;23.346;2023-05-09T03:19:58;11.25;;;4.50;;
77287;SDS011;66345;42.694;23.346;2023-05-09T03:22:24;9.75;;;4.80;;
77287;SDS011;66345;42.694;23.346;2023-05-09T03:24:50;7.70;;;4.93;;
77287;SDS011;66345;42.694;23.346;2023-05-09T03:27:15;8.77;;;4.87;;
77287;SDS011;66345;42.694;23.346;2023-05-09T03:29:40;8.15;;;5.13;;
77287;SDS011;66345;42.694;23.346;2023-05-09T03:32:06;9.30;;;4.97;;
77287;SDS011;66345;42.694;23.346;2023-05-09T03:34:32;9.57;;;4.85;;
77287;SDS011;66345;42.694;23.346;2023-05-09T03:36:57;8.48;;;5.03;;
77287;SDS011;66345;42.694;23.346;2023-05-09T03:39:23;9.47;;;5.07;;
77287;SDS011;66345;42.694;23.346;2023-05-09T03:41:48;10.33;;;5.53;;
77287;SDS011;66345;42.694;23.346;2023-05-09T03:44:14;10.40;;;5.15;;
77287;SDS011;66345;42.694;23.346;2023-05-09T03:46:39;8.67;;;5.73;;
77287;SDS011;66345;42.694;23.346;2023-05-09T03:49:05;9.73;;;5.63;;
77287;SDS011;66345;42.694;23.346;2023-05-09T03:51:30;8.82;;;5.18;;
77287;SDS011;66345;42.694;23.346;2023-05-09T03:53:56;8.43;;;5.32;;
77287;SDS011;66345;42.694;23.346;2023-05-09T03:56:22;8.10;;;4.55;;
77287;SDS011;66345;42.694;23.346;2023-05-09T03:58:47;8.25;;;5.00;;
77287;SDS011;66345;42.694;23.346;2023-05-09T04:01:13;8.30;;;4.77;;
77287;SDS011;66345;42.694;23.346;2023-05-09T04:03:39;9.30;;;5.25;;
77287;SDS011;66345;42.694;23.346;2023-05-09T04:06:05;9.30;;;5.43;;
77287;SDS011;66345;42.694;23.346;2023-05-09T04:08:31;8.60;;;5.60;;
77287;SDS011;66345;42.694;23.346;2023-05-09T04:10:56;10.63;;;5.43;;
77287;SDS011;66345;42.694;23.346;2023-05-09T04:13:22;8.13;;;5.60;;
77287;SDS011;66345;42.694;23.346;2023-05-09T04:15:47;10.13;;;5.00;;
77287;SDS011;66345;42.694;23.346;2023-05-09T04:18:14;10.68;;;6.00;;
77287;SDS011;66345;42.694;23.346;2023-05-09T04:20:39;8.90;;;5.10;;
77287;SDS011;66345;42.694;23.346;2023-05-09T04:23:05;13.25;;;6.70;;
77287;SDS011;66345;42.694;23.346;2023-05-09T04:25:30;10.02;;;5.97;;
77287;SDS011;66345;42.694;23.346;2023-05-09T04:27:56;9.23;;;5.40;;
77287;SDS011;66345;42.694;23.346;2023-05-09T04:30:21;9.37;;;5.33;;
77287;SDS011;66345;42.694;23.346;2023-05-09T04:32:47;10.10;;;5.40;;
77287;SDS011;66345;42.694;23.346;2023-05-09T04:35:14;7.80;;;4.43;;
77287;SDS011;66345;42.694;23.346;2023-05-09T04:37:39;8.13;;;5.00;;
77287;SDS011;66345;42.694;23.346;2023-05-09T04:40:06;8.63;;;4.47;;
77287;SDS011;66345;42.694;23.346;2023-05-09T04:42:33;9.88;;;4.68;;
77287;SDS011;66345;42.694;23.346;2023-05-09T04:44:59;10.27;;;4.37;;
77287;SDS011;66345;42.694;23.346;2023-05-09T04:47:25;5.57;;;3.05;;
77287;SDS011;66345;42.694;23.346;2023-05-09T04:49:50;6.53;;;3.20;;
77287;SDS011;66345;42.694;23.346;2023-05-09T04:52:16;5.63;;;3.17;;
77287;SDS011;66345;42.694;23.346;2023-05-09T04:54:42;6.28;;;2.90;;
77287;SDS011;66345;42.694;23.346;2023-05-09T04:57:07;7.17;;;3.43;;
77287;SDS011;66345;42.694;23.346;2023-05-09T04:59:33;6.20;;;2.83;;
77287;SDS011;66345;42.694;23.346;2023-05-09T05:01:59;6.45;;;2.65;;
77287;SDS011;66345;42.694;23.346;2023-05-09T05:04:25;5.75;;;2.67;;
77287;SDS011;66345;42.694;23.346;2023-05-09T05:06:50;5.30;;;2.23;;
77287;SDS011;66345;42.694;23.346;2023-05-09T05:09:16;5.50;;;2.67;;
77287;SDS011;66345;42.694;23.346;2023-05-09T05:11:41;4.95;;;2.20;;
77287;SDS011;66345;42.694;23.346;2023-05-09T05:14:08;3.90;;;1.90;;
77287;SDS011;66345;42.694;23.346;2023-05-09T05:16:33;5.88;;;2.10;;
77287;SDS011;66345;42.694;23.346;2023-05-09T05:18:59;5.47;;;2.13;;
77287;SDS011;66345;42.694;23.346;2023-05-09T05:21:24;9.02;;;2.50;;
77287;SDS011;66345;42.694;23.346;2023-05-09T05:23:50;5.27;;;2.20;;
77287;SDS011;66345;42.694;23.346;2023-05-09T05:26:15;5.07;;;2.37;;
77287;SDS011;66345;42.694;23.346;2023-05-09T05:28:41;5.23;;;1.57;;
77287;SDS011;66345;42.694;23.346;2023-05-09T05:31:06;5.43;;;1.70;;
77287;SDS011;66345;42.694;23.346;2023-05-09T05:33:31;3.95;;;1.45;;
77287;SDS011;66345;42.694;23.346;2023-05-09T05:35:57;7.63;;;1.90;;
77287;SDS011;66345;42.694;23.346;2023-05-09T05:38:22;3.33;;;1.20;;
77287;SDS011;66345;42.694;23.346;2023-05-09T05:40:48;3.70;;;1.10;;
77287;SDS011;66345;42.694;23.346;2023-05-09T05:43:13;5.47;;;1.40;;
77287;SDS011;66345;42.694;23.346;2023-05-09T05:45:39;3.40;;;1.30;;
77287;SDS011;66345;42.694;23.346;2023-05-09T05:48:04;3.43;;;1.10;;
77287;SDS011;66345;42.694;23.346;2023-05-09T05:50:30;3.50;;;1.20;;
77287;SDS011;66345;42.694;23.346;2023-05-09T05:52:55;3.13;;;1.30;;
77287;SDS011;66345;42.694;23.346;2023-05-09T05:55:20;4.17;;;1.30;;
77287;SDS011;66345;42.694;23.346;2023-05-09T05:57:46;5.80;;;1.40;;
77287;SDS011;66345;42.694;23.346;2023-05-09T06:00:12;3.60;;;1.40;;
77287;SDS011;66345;42.694;23.346;2023-05-09T06:02:41;3.17;;;1.30;;
77287;SDS011;66345;42.694;23.346;2023-05-09T06:05:10;3.20;;;1.13;;
77287;SDS011;66345;42.694;23.346;2023-05-09T06:07:36;3.90;;;1.55;;
77287;SDS011;66345;42.694;23.346;2023-05-09T06:10:01;2.90;;;1.10;;
77287;SDS011;66345;42.694;23.346;2023-05-09T06:12:27;4.55;;;1.50;;
77287;SDS011;66345;42.694;23.346;2023-05-09T06:14:52;3.90;;;1.40;;
77287;SDS011;66345;42.694;23.346;2023-05-09T06:17:18;5.27;;;1.40;;
77287;SDS011;66345;42.694;23.346;2023-05-09T06:19:43;2.95;;;1.10;;
77287;SDS011;66345;42.694;23.346;2023-05-09T06:22:09;5.13;;;1.40;;
77287;SDS011;66345;42.694;23.346;2023-05-09T06:24:35;3.15;;;1.20;;
77287;SDS011;66345;42.694;23.346;2023-05-09T06:27:00;3.33;;;0.90;;
77287;SDS011;66345;42.694;23.346;2023-05-09T06:29:26;3.53;;;1.43;;
77287;SDS011;66345;42.694;23.346;2023-05-09T06:31:51;2.75;;;1.05;;
77287;SDS011;66345;42.694;23.346;2023-05-09T06:34:18;7.10;;;1.37;;
77287;SDS011;66345;42.694;23.346;2023-05-09T06:36:43;3.95;;;1.10;;
77287;SDS011;66345;42.694;23.346;2023-05-09T06:39:08;6.67;;;1.30;;
77287;SDS011;66345;42.694;23.346;2023-05-09T06:41:34;3.30;;;1.07;;
77287;SDS011;66345;42.694;23.346;2023-05-09T06:43:59;3.30;;;1.20;;
77287;SDS011;66345;42.694;23.346;2023-05-09T06:46:26;2.92;;;1.10;;
77287;SDS011;66345;42.694;23.346;2023-05-09T06:48:52;3.28;;;0.90;;
77287;SDS011;66345;42.694;23.346;2023-05-09T06:51:18;4.23;;;1.10;;
77287;SDS011;66345;42.694;23.346;2023-05-09T06:53:43;2.30;;;0.80;;
77287;SDS011;66345;42.694;23.346;2023-05-09T06:56:08;2.50;;;0.80;;
77287;SDS011;66345;42.694;23.346;2023-05-09T06:58:34;3.10;;;1.00;;
77287;SDS011;66345;42.694;23.346;2023-05-09T07:01:00;4.00;;;1.38;;
77287;SDS011;66345;42.694;23.346;2023-05-09T07:03:25;4.37;;;1.20;;
77287;SDS011;66345;42.694;23.346;2023-05-09T07:05:51;4.43;;;1.27;;
77287;SDS011;66345;42.694;23.346;2023-05-09T07:08:16;3.30;;;1.00;;
77287;SDS011;66345;42.694;23.346;2023-05-09T07:10:42;4.72;;;1.08;;
77287;SDS011;66345;42.694;23.346;2023-05-09T07:13:07;3.28;;;1.20;;
77287;SDS011;66345;42.694;23.346;2023-05-09T07:15:33;3.27;;;1.00;;
77287;SDS011;66345;42.694;23.346;2023-05-09T07:17:59;5.78;;;1.30;;
77287;SDS011;66345;42.694;23.346;2023-05-09T07:20:24;3.63;;;1.37;;
77287;SDS011;66345;42.694;23.346;2023-05-09T07:22:49;3.87;;;1.20;;
77287;SDS011;66345;42.694;23.346;2023-05-09T07:25:15;3.57;;;1.13;;
77287;SDS011;66345;42.694;23.346;2023-05-09T07:27:40;4.03;;;1.20;;
77287;SDS011;66345;42.694;23.346;2023-05-09T07:30:06;3.47;;;1.43;;
77287;SDS011;66345;42.694;23.346;2023-05-09T07:32:33;3.13;;;1.20;;
77287;SDS011;66345;42.694;23.346;2023-05-09T07:34:58;3.90;;;1.23;;
77287;SDS011;66345;42.694;23.346;2023-05-09T07:37:24;3.35;;;1.00;;
77287;SDS011;66345;42.694;23.346;2023-05-09T07:39:49;2.92;;;1.10;;
77287;SDS011;66345;42.694;23.346;2023-05-09T07:42:16;3.28;;;1.00;;
77287;SDS011;66345;42.694;23.346;2023-05-09T07:44:42;2.78;;;1.13;;
77287;SDS011;66345;42.694;23.346;2023-05-09T07:47:08;3.10;;;1.10;;
77287;SDS011;66345;42.694;23.346;2023-05-09T07:49:33;3.13;;;1.08;;
77287;SDS011;66345;42.694;23.346;2023-05-09T07:51:59;3.20;;;1.30;;
77287;SDS011;66345;42.694;23.346;2023-05-09T07:54:25;14.40;;;7.10;;
77287;SDS011;66345;42.694;23.346;2023-05-09T07:56:51;5.20;;;1.40;;
77287;SDS011;66345;42.694;23.346;2023-05-09T07:59:17;2.80;;;0.93;;
77287;SDS011;66345;42.694;23.346;2023-05-09T08:01:43;2.80;;;1.00;;
77287;SDS011;66345;42.694;23.346;2023-05-09T08:04:09;3.17;;;1.10;;
77287;SDS011;66345;42.694;23.346;2023-05-09T08:06:34;3.97;;;1.10;;
77287;SDS011;66345;42.694;23.346;2023-05-09T08:09:00;2.90;;;1.10;;
77287;SDS011;66345;42.694;23.346;2023-05-09T08:11:26;2.80;;;1.03;;
77287;SDS011;66345;42.694;23.346;2023-05-09T08:13:51;2.97;;;1.10;;
77287;SDS011;66345;42.694;23.346;2023-05-09T08:16:17;3.60;;;0.90;;
77287;SDS011;66345;42.694;23.346;2023-05-09T08:18:43;3.20;;;0.90;;
77287;SDS011;66345;42.694;23.346;2023-05-09T08:21:08;3.47;;;0.90;;
77287;SDS011;66345;42.694;23.346;2023-05-09T08:23:34;2.70;;;0.80;;
77287;SDS011;66345;42.694;23.346;2023-05-09T08:25:59;2.83;;;0.83;;
77287;SDS011;66345;42.694;23.346;2023-05-09T08:28:25;2.97;;;0.90;;
77287;SDS011;66345;42.694;23.346;2023-05-09T08:30:52;3.50;;;1.20;;
77287;SDS011;66345;42.694;23.346;2023-05-09T08:33:18;2.95;;;1.00;;
77287;SDS011;66345;42.694;23.346;2023-05-09T08:35:44;6.03;;;1.10;;
77287;SDS011;66345;42.694;23.346;2023-05-09T08:38:10;4.53;;;1.00;;
77287;SDS011;66345;42.694;23.346;2023-05-09T08:40:35;3.42;;;1.30;;
77287;SDS011;66345;42.694;23.346;2023-05-09T08:43:02;3.47;;;1.13;;
77287;SDS011;66345;42.694;23.346;2023-05-09T08:45:30;3.53;;;0.80;;
77287;SDS011;66345;42.694;23.346;2023-05-09T08:48:01;3.35;;;0.90;;
77287;SDS011;66345;42.694;23.346;2023-05-09T08:50:27;2.80;;;0.50;;
77287;SDS011;66345;42.694;23.346;2023-05-09T08:52:53;5.07;;;0.90;;
77287;SDS011;66345;42.694;23.346;2023-05-09T08:55:19;3.35;;;1.08;;
77287;SDS011;66345;42.694;23.346;2023-05-09T08:57:45;2.88;;;0.85;;
77287;SDS011;66345;42.694;23.346;2023-05-09T09:00:11;3.20;;;0.70;;
77287;SDS011;66345;42.694;23.346;2023-05-09T09:02:40;3.25;;;0.70;;
77287;SDS011;66345;42.694;23.346;2023-05-09T09:05:06;6.40;;;2.42;;
77287;SDS011;66345;42.694;23.346;2023-05-09T09:07:35;6.37;;;0.83;;
77287;SDS011;66345;42.694;23.346;2023-05-09T09:10:02;2.40;;;0.60;;
77287;SDS011;66345;42.694;23.346;2023-05-09T09:12:28;3.13;;;0.63;;
77287;SDS011;66345;42.694;23.346;2023-05-09T09:14:55;2.63;;;0.80;;
77287;SDS011;66345;42.694;23.346;2023-05-09T09:17:27;3.97;;;0.65;;
77287;SDS011;66345;42.694;23.346;2023-05-09T09:19:59;5.23;;;0.60;;
77287;SDS011;66345;42.694;23.346;2023-05-09T09:22:31;7.80;;;0.90;;
77287;SDS011;66345;42.694;23.346;2023-05-09T09:24:58;3.25;;;0.50;;
77287;SDS011;66345;42.694;23.346;2023-05-09T09:27:27;2.95;;;0.60;;
77287;SDS011;66345;42.694;23.346;2023-05-09T09:29:53;3.50;;;0.70;;
77287;SDS011;66345;42.694;23.346;2023-05-09T09:32:19;2.87;;;0.80;;
77287;SDS011;66345;42.694;23.346;2023-05-09T09:34:48;2.50;;;0.80;;
77287;SDS011;66345;42.694;23.346;2023-05-09T09:37:20;3.17;;;1.00;;
77287;SDS011;66345;42.694;23.346;2023-05-09T09:39:53;2.30;;;0.80;;
77287;SDS011;66345;42.694;23.346;2023-05-09T09:42:20;2.80;;;1.20;;
77287;SDS011;66345;42.694;23.346;2023-05-09T09:44:50;2.60;;;1.00;;
77287;SDS011;66345;42.694;23.346;2023-05-09T09:47:20;3.42;;;1.40;;
77287;SDS011;66345;42.694;23.346;2023-05-09T09:49:55;3.80;;;1.10;;
77287;SDS011;66345;42.694;23.346;2023-05-09T09:52:21;2.67;;;0.90;;
77287;SDS011;66345;42.694;23.346;2023-05-09T09:54:49;2.65;;;0.98;;
77287;SDS011;66345;42.694;23.346;2023-05-09T10:00:14;4.68;;;1.33;;
77287;SDS011;66345;42.694;23.346;2023-05-09T10:02:48;3.08;;;1.20;;
77287;SDS011;66345;42.694;23.346;2023-05-09T10:05:19;2.40;;;0.95;;
77287;SDS011;66345;42.694;23.346;2023-05-09T10:07:53;3.22;;;1.10;;
77287;SDS011;66345;42.694;23.346;2023-05-09T10:10:20;2.70;;;1.00;;
77287;SDS011;66345;42.694;23.346;2023-05-09T10:12:47;2.92;;;1.27;;
77287;SDS011;66345;42.694;23.346;2023-05-09T10:15:15;3.30;;;1.58;;
77287;SDS011;66345;42.694;23.346;2023-05-09T10:17:44;4.28;;;1.30;;
77287;SDS011;66345;42.694;23.346;2023-05-09T10:20:10;3.15;;;1.08;;
77287;SDS011;66345;42.694;23.346;2023-05-09T10:22:38;3.95;;;1.45;;
77287;SDS011;66345;42.694;23.346;2023-05-09T10:25:06;4.28;;;1.40;;
77287;SDS011;66345;42.694;23.346;2023-05-09T10:27:37;3.40;;;1.30;;
77287;SDS011;66345;42.694;23.346;2023-05-09T10:30:06;3.13;;;1.30;;
77287;SDS011;66345;42.694;23.346;2023-05-09T10:32:42;3.05;;;0.98;;
77287;SDS011;66345;42.694;23.346;2023-05-09T10:35:28;2.97;;;1.00;;
77287;SDS011;66345;42.694;23.346;2023-05-09T10:37:57;2.92;;;1.27;;
77287;SDS011;66345;42.694;23.346;2023-05-09T10:40:26;3.53;;;1.37;;
77287;SDS011;66345;42.694;23.346;2023-05-09T10:42:53;3.38;;;1.15;;
77287;SDS011;66345;42.694;23.346;2023-05-09T10:45:19;3.35;;;1.20;;
77287;SDS011;66345;42.694;23.346;2023-05-09T10:47:47;3.75;;;1.40;;
77287;SDS011;66345;42.694;23.346;2023-05-09T10:50:14;2.95;;;1.27;;
77287;SDS011;66345;42.694;23.346;2023-05-09T10:53:15;3.08;;;1.35;;
77287;SDS011;66345;42.694;23.346;2023-05-09T10:55:48;2.95;;;1.30;;
77287;SDS011;66345;42.694;23.346;2023-05-09T11:00:54;3.50;;;1.60;;
77287;SDS011;66345;42.694;23.346;2023-05-09T11:03:22;4.53;;;1.35;;
77287;SDS011;66345;42.694;23.346;2023-05-09T11:05:49;3.88;;;1.70;;
77287;SDS011;66345;42.694;23.346;2023-05-09T11:08:17;4.38;;;1.67;;
77287;SDS011;66345;42.694;23.346;2023-05-09T11:10:50;4.72;;;1.70;;
77287;SDS011;66345;42.694;23.346;2023-05-09T11:13:18;4.57;;;1.90;;
77287;SDS011;66345;42.694;23.346;2023-05-09T11:18:24;4.28;;;1.75;;
77287;SDS011;66345;42.694;23.346;2023-05-09T11:20:50;3.47;;;1.70;;
77287;SDS011;66345;42.694;23.346;2023-05-09T11:23:18;3.67;;;1.93;;
77287;SDS011;66345;42.694;23.346;2023-05-09T11:25:45;5.55;;;2.10;;
77287;SDS011;66345;42.694;23.346;2023-05-09T11:28:25;4.15;;;2.10;;
77287;SDS011;66345;42.694;23.346;2023-05-09T11:31:15;3.90;;;1.98;;
77287;SDS011;66345;42.694;23.346;2023-05-09T11:33:41;3.20;;;1.42;;
77287;SDS011;66345;42.694;23.346;2023-05-09T11:36:28;3.28;;;1.65;;
77287;SDS011;66345;42.694;23.346;2023-05-09T11:41:28;3.50;;;1.77;;
77287;SDS011;66345;42.694;23.346;2023-05-09T11:43:55;3.40;;;1.50;;
77287;SDS011;66345;42.694;23.346;2023-05-09T11:46:23;3.47;;;1.80;;
77287;SDS011;66345;42.694;23.346;2023-05-09T11:48:49;3.63;;;1.70;;
77287;SDS011;66345;42.694;23.346;2023-05-09T11:51:15;3.80;;;1.70;;
77287;SDS011;66345;42.694;23.346;2023-05-09T11:53:43;4.05;;;1.80;;
77287;SDS011;66345;42.694;23.346;2023-05-09T11:56:11;4.73;;;2.00;;
77287;SDS011;66345;42.694;23.346;2023-05-09T11:58:38;4.75;;;1.90;;
77287;SDS011;66345;42.694;23.346;2023-05-09T12:01:04;4.50;;;1.95;;
77287;SDS011;66345;42.694;23.346;2023-05-09T12:03:31;3.90;;;1.98;;
77287;SDS011;66345;42.694;23.346;2023-05-09T12:05:57;3.75;;;1.90;;
77287;SDS011;66345;42.694;23.346;2023-05-09T12:08:22;3.83;;;2.10;;
77287;SDS011;66345;42.694;23.346;2023-05-09T12:10:48;4.88;;;1.95;;
77287;SDS011;66345;42.694;23.346;2023-05-09T12:13:14;4.63;;;2.15;;
77287;SDS011;66345;42.694;23.346;2023-05-09T12:15:39;5.20;;;2.30;;
77287;SDS011;66345;42.694;23.346;2023-05-09T12:18:06;4.40;;;2.13;;
77287;SDS011;66345;42.694;23.346;2023-05-09T12:20:42;5.63;;;2.30;;
77287;SDS011;66345;42.694;23.346;2023-05-09T12:23:11;4.50;;;2.40;;
77287;SDS011;66345;42.694;23.346;2023-05-09T12:25:38;5.78;;;1.92;;
77287;SDS011;66345;42.694;23.346;2023-05-09T12:28:04;4.97;;;2.50;;
77287;SDS011;66345;42.694;23.346;2023-05-09T12:30:30;4.50;;;2.03;;
77287;SDS011;66345;42.694;23.346;2023-05-09T12:32:56;5.57;;;2.50;;
77287;SDS011;66345;42.694;23.346;2023-05-09T12:35:23;6.80;;;2.10;;
77287;SDS011;66345;42.694;23.346;2023-05-09T12:37:56;4.38;;;1.77;;
77287;SDS011;66345;42.694;23.346;2023-05-09T12:40:22;5.20;;;2.95;;
77287;SDS011;66345;42.694;23.346;2023-05-09T12:42:48;5.85;;;2.53;;
77287;SDS011;66345;42.694;23.346;2023-05-09T12:45:14;5.90;;;2.70;;
77287;SDS011;66345;42.694;23.346;2023-05-09T12:47:39;4.25;;;2.33;;
77287;SDS011;66345;42.694;23.346;2023-05-09T12:50:09;4.60;;;1.98;;
77287;SDS011;66345;42.694;23.346;2023-05-09T12:52:37;4.35;;;2.10;;
77287;SDS011;66345;42.694;23.346;2023-05-09T12:55:06;5.45;;;2.47;;
77287;SDS011;66345;42.694;23.346;2023-05-09T12:57:33;4.55;;;2.10;;
77287;SDS011;66345;42.694;23.346;2023-05-09T13:00:00;7.68;;;2.40;;
77287;SDS011;66345;42.694;23.346;2023-05-09T13:02:32;4.88;;;1.70;;
77287;SDS011;66345;42.694;23.346;2023-05-09T13:07:42;4.68;;;1.92;;
77287;SDS011;66345;42.694;23.346;2023-05-09T13:12:46;5.68;;;1.95;;
77287;SDS011;66345;42.694;23.346;2023-05-09T13:15:15;4.63;;;2.20;;
77287;SDS011;66345;42.694;23.346;2023-05-09T13:17:44;6.40;;;2.20;;
77287;SDS011;66345;42.694;23.346;2023-05-09T13:20:12;4.47;;;2.13;;
77287;SDS011;66345;42.694;23.346;2023-05-09T13:22:37;5.22;;;2.08;;
77287;SDS011;66345;42.694;23.346;2023-05-09T13:25:03;4.33;;;2.00;;
77287;SDS011;66345;42.694;23.346;2023-05-09T13:27:30;4.63;;;2.03;;
77287;SDS011;66345;42.694;23.346;2023-05-09T13:29:56;6.07;;;2.25;;
77287;SDS011;66345;42.694;23.346;2023-05-09T13:32:22;5.07;;;2.13;;
77287;SDS011;66345;42.694;23.346;2023-05-09T13:34:48;4.53;;;2.33;;
77287;SDS011;66345;42.694;23.346;2023-05-09T13:37:14;4.55;;;2.20;;
77287;SDS011;66345;42.694;23.346;2023-05-09T13:39:40;4.37;;;2.10;;
77287;SDS011;66345;42.694;23.346;2023-05-09T13:42:05;4.80;;;2.13;;
77287;SDS011;66345;42.694;23.346;2023-05-09T13:44:31;4.90;;;2.42;;
77287;SDS011;66345;42.694;23.346;2023-05-09T13:46:56;5.60;;;2.20;;
77287;SDS011;66345;42.694;23.346;2023-05-09T13:49:24;7.05;;;2.30;;
77287;SDS011;66345;42.694;23.346;2023-05-09T13:51:49;4.13;;;1.60;;
77287;SDS011;66345;42.694;23.346;2023-05-09T13:54:15;5.13;;;1.90;;
77287;SDS011;66345;42.694;23.346;2023-05-09T13:56:43;4.28;;;1.67;;
77287;SDS011;66345;42.694;23.346;2023-05-09T13:59:09;4.30;;;1.45;;
77287;SDS011;66345;42.694;23.346;2023-05-09T14:01:35;4.97;;;1.67;;
77287;SDS011;66345;42.694;23.346;2023-05-09T14:04:00;4.70;;;2.10;;
77287;SDS011;66345;42.694;23.346;2023-05-09T14:06:26;3.80;;;1.90;;
77287;SDS011;66345;42.694;23.346;2023-05-09T14:08:54;3.53;;;1.50;;
77287;SDS011;66345;42.694;23.346;2023-05-09T14:11:20;4.47;;;2.03;;
77287;SDS011;66345;42.694;23.346;2023-05-09T14:13:45;3.90;;;1.80;;
77287;SDS011;66345;42.694;23.346;2023-05-09T14:16:11;4.63;;;1.90;;
77287;SDS011;66345;42.694;23.346;2023-05-09T14:18:36;3.67;;;1.67;;
77287;SDS011;66345;42.694;23.346;2023-05-09T14:21:02;3.90;;;1.30;;
77287;SDS011;66345;42.694;23.346;2023-05-09T14:23:27;4.10;;;1.77;;
77287;SDS011;66345;42.694;23.346;2023-05-09T14:25:53;4.33;;;1.77;;
77287;SDS011;66345;42.694;23.346;2023-05-09T14:28:18;4.05;;;1.83;;
77287;SDS011;66345;42.694;23.346;2023-05-09T14:30:44;5.50;;;1.50;;
77287;SDS011;66345;42.694;23.346;2023-05-09T14:33:09;5.57;;;1.60;;
77287;SDS011;66345;42.694;23.346;2023-05-09T14:35:35;3.20;;;1.20;;
77287;SDS011;66345;42.694;23.346;2023-05-09T14:38:00;3.10;;;1.00;;
77287;SDS011;66345;42.694;23.346;2023-05-09T14:40:26;3.65;;;1.33;;
77287;SDS011;66345;42.694;23.346;2023-05-09T14:42:56;3.90;;;1.23;;
77287;SDS011;66345;42.694;23.346;2023-05-09T14:45:23;4.82;;;1.40;;
77287;SDS011;66345;42.694;23.346;2023-05-09T14:47:49;4.82;;;1.60;;
77287;SDS011;66345;42.694;23.346;2023-05-09T14:50:15;4.80;;;1.58;;
77287;SDS011;66345;42.694;23.346;2023-05-09T14:52:41;4.00;;;1.50;;
77287;SDS011;66345;42.694;23.346;2023-05-09T14:55:07;4.05;;;1.73;;
77287;SDS011;66345;42.694;23.346;2023-05-09T14:57:33;4.85;;;1.50;;